THY84 LTFM-RPLL
Flight info
| Callsign | THY84 |
|---|---|
| Flight time | N/A |
| Altitude | 31000 |
| Route | EKAWE UT643 GAKSU UT310 SIN UN644 KARDE UL851 TBN UM11 REBLO/N0492F330 M11 MATAL DCT ERLEV M11 RODAR A909 LEMOD N644 REGET G325 HANGU L509 NONIB T400 LA/N0491F350 T400 SULOM M890 LKN A201 LSO A599 LINSO/K0924S1070 A599 TAVAB/K0915S1130 A599 POU B330 TAMOT/N0493F370 B330 BIGEX DCT POVAM DCT NOPER V642 NOMAN A461 CAB CAB1D |
| Aircraft | B77W/H-SDE1E2E3FGHIJ2J3J4J5M1RWXY/LB1D1 |
Departure
| Time | N/A |
|---|---|
| Airport | İstanbul Airport (LTFM) |
Arrival
| Time | 2026-05-04 13:39 |
|---|---|
| Airport | Ninoy Aquino International Airport (RPLL) |
| Time | Latitude | Longitude | Altitude | Speed | Heading |
|---|---|---|---|---|---|
| 2026-05-04 11:57 | 23.03737 | 112.96957 | 37024 ft | 547 kts | 95° |
| 2026-05-04 11:58 | 23.03452 | 113.01080 | 37024 ft | 547 kts | 95° |
| 2026-05-04 11:58 | 23.02880 | 113.09311 | 37026 ft | 547 kts | 95° |
| 2026-05-04 11:59 | 23.01545 | 113.17162 | 37024 ft | 539 kts | 115° |
| 2026-05-04 11:59 | 22.99870 | 113.20745 | 37004 ft | 525 kts | 127° |
| 2026-05-04 11:59 | 22.97708 | 113.23855 | 37004 ft | 506 kts | 140° |
| 2026-05-04 11:59 | 22.95217 | 113.26392 | 37028 ft | 491 kts | 143° |
| 2026-05-04 12:00 | 22.92707 | 113.28866 | 37000 ft | 484 kts | 143° |
| 2026-05-04 12:00 | 22.87831 | 113.33747 | 37003 ft | 469 kts | 143° |
| 2026-05-04 12:01 | 22.83138 | 113.38521 | 37008 ft | 457 kts | 142° |
| 2026-05-04 12:02 | 22.67575 | 113.54414 | 36649 ft | 429 kts | 143° |
| 2026-05-04 12:03 | 22.65400 | 113.56629 | 36544 ft | 427 kts | 143° |
| 2026-05-04 12:03 | 22.63240 | 113.58829 | 36452 ft | 425 kts | 143° |
| 2026-05-04 12:03 | 22.61090 | 113.61019 | 36335 ft | 424 kts | 143° |
| 2026-05-04 12:03 | 22.58943 | 113.63203 | 36209 ft | 423 kts | 143° |
| 2026-05-04 12:04 | 22.56795 | 113.65389 | 36104 ft | 422 kts | 144° |
| 2026-05-04 12:04 | 22.54661 | 113.67559 | 35988 ft | 420 kts | 144° |
| 2026-05-04 12:04 | 22.50447 | 113.71844 | 35838 ft | 417 kts | 143° |
| 2026-05-04 12:05 | 22.48329 | 113.73993 | 35717 ft | 417 kts | 144° |
| 2026-05-04 12:05 | 22.46216 | 113.76136 | 35597 ft | 416 kts | 144° |
| 2026-05-04 12:05 | 22.42016 | 113.80399 | 35499 ft | 412 kts | 144° |
| 2026-05-04 12:06 | 22.39926 | 113.82515 | 35349 ft | 411 kts | 144° |
| 2026-05-04 12:06 | 22.37833 | 113.84633 | 35243 ft | 414 kts | 144° |
| 2026-05-04 12:06 | 22.33738 | 113.89072 | 35561 ft | 423 kts | 139° |
| 2026-05-04 12:07 | 22.31756 | 113.91430 | 35795 ft | 424 kts | 139° |
| 2026-05-04 12:07 | 22.29780 | 113.93790 | 36047 ft | 424 kts | 139° |
| 2026-05-04 12:07 | 22.27795 | 113.96154 | 36273 ft | 424 kts | 139° |
| 2026-05-04 12:07 | 22.25807 | 113.98509 | 36483 ft | 425 kts | 139° |
| 2026-05-04 12:08 | 22.23806 | 114.00868 | 36615 ft | 428 kts | 138° |
| 2026-05-04 12:08 | 22.21800 | 114.03262 | 36804 ft | 431 kts | 135° |
| 2026-05-04 12:08 | 22.19900 | 114.05795 | 36907 ft | 436 kts | 134° |
| 2026-05-04 12:08 | 22.18020 | 114.08380 | 36962 ft | 441 kts | 133° |
| 2026-05-04 12:09 | 22.14182 | 114.13654 | 37037 ft | 451 kts | 135° |
| 2026-05-04 12:09 | 22.09988 | 114.18804 | 37040 ft | 463 kts | 137° |
| 2026-05-04 12:10 | 22.05609 | 114.23985 | 37042 ft | 477 kts | 137° |
| 2026-05-04 12:10 | 22.01094 | 114.29373 | 37044 ft | 491 kts | 137° |
| 2026-05-04 12:11 | 21.96474 | 114.34940 | 37046 ft | 505 kts | 136° |
| 2026-05-04 12:11 | 21.91739 | 114.40662 | 37038 ft | 517 kts | 136° |
| 2026-05-04 12:12 | 21.86904 | 114.46499 | 37055 ft | 527 kts | 136° |
| 2026-05-04 12:12 | 21.82002 | 114.52409 | 37032 ft | 530 kts | 136° |
| 2026-05-04 12:14 | 21.62399 | 114.75963 | 37036 ft | 527 kts | 137° |
| 2026-05-04 12:15 | 21.57510 | 114.81818 | 37029 ft | 526 kts | 137° |
| 2026-05-04 12:15 | 21.52619 | 114.87669 | 37034 ft | 525 kts | 137° |
| 2026-05-04 12:16 | 21.47743 | 114.93497 | 37027 ft | 524 kts | 137° |
| 2026-05-04 12:16 | 21.42861 | 114.99324 | 37015 ft | 524 kts | 136° |
| 2026-05-04 12:17 | 21.37994 | 115.05129 | 37020 ft | 523 kts | 136° |
| 2026-05-04 12:17 | 21.33117 | 115.10939 | 37028 ft | 523 kts | 136° |
| 2026-05-04 12:18 | 21.28280 | 115.16694 | 37031 ft | 523 kts | 136° |
| 2026-05-04 12:18 | 21.23406 | 115.22487 | 37030 ft | 523 kts | 136° |
| 2026-05-04 12:19 | 21.18523 | 115.28286 | 37024 ft | 524 kts | 136° |
| 2026-05-04 12:19 | 21.13636 | 115.34082 | 37024 ft | 524 kts | 136° |
| 2026-05-04 12:20 | 21.08752 | 115.39869 | 37031 ft | 524 kts | 136° |
| 2026-05-04 12:20 | 21.03864 | 115.45655 | 37023 ft | 523 kts | 136° |
| 2026-05-04 12:21 | 20.98987 | 115.51422 | 37022 ft | 522 kts | 136° |
| 2026-05-04 12:21 | 20.94144 | 115.57144 | 37023 ft | 521 kts | 136° |
| 2026-05-04 12:22 | 20.89271 | 115.62893 | 37017 ft | 520 kts | 136° |
| 2026-05-04 12:22 | 20.84406 | 115.68627 | 37015 ft | 520 kts | 136° |
| 2026-05-04 12:23 | 20.79547 | 115.74349 | 37019 ft | 520 kts | 136° |
| 2026-05-04 12:23 | 20.74713 | 115.80034 | 37017 ft | 520 kts | 136° |
| 2026-05-04 12:24 | 20.69852 | 115.85747 | 36999 ft | 520 kts | 136° |
| 2026-05-04 12:24 | 20.64987 | 115.91458 | 37009 ft | 519 kts | 136° |
| 2026-05-04 12:25 | 20.60119 | 115.97166 | 37007 ft | 519 kts | 136° |
| 2026-05-04 12:25 | 20.55251 | 116.02869 | 37014 ft | 519 kts | 136° |
| 2026-05-04 12:26 | 20.50379 | 116.08570 | 37011 ft | 520 kts | 136° |
| 2026-05-04 12:26 | 20.45513 | 116.14259 | 37011 ft | 520 kts | 136° |
| 2026-05-04 12:27 | 20.40632 | 116.19959 | 37011 ft | 520 kts | 136° |
| 2026-05-04 12:27 | 20.35787 | 116.25612 | 37011 ft | 520 kts | 136° |
| 2026-05-04 12:28 | 20.30915 | 116.31292 | 37012 ft | 519 kts | 136° |
| 2026-05-04 12:28 | 20.26046 | 116.36961 | 36996 ft | 518 kts | 136° |
| 2026-05-04 12:29 | 20.21178 | 116.42624 | 36992 ft | 517 kts | 136° |
| 2026-05-04 12:29 | 20.16316 | 116.48275 | 37009 ft | 517 kts | 136° |
| 2026-05-04 12:30 | 20.11457 | 116.53916 | 37010 ft | 516 kts | 136° |
| 2026-05-04 12:30 | 20.06638 | 116.59506 | 37005 ft | 516 kts | 136° |
| 2026-05-04 12:31 | 20.01790 | 116.65126 | 37002 ft | 515 kts | 136° |
| 2026-05-04 12:31 | 19.96944 | 116.70740 | 37002 ft | 515 kts | 136° |
| 2026-05-04 12:32 | 19.89692 | 116.79159 | 37004 ft | 515 kts | 136° |
| 2026-05-04 12:33 | 19.84858 | 116.84766 | 37005 ft | 515 kts | 136° |
| 2026-05-04 12:33 | 19.80019 | 116.90372 | 36999 ft | 515 kts | 136° |
| 2026-05-04 12:34 | 19.75178 | 116.95975 | 36997 ft | 514 kts | 136° |
| 2026-05-04 12:34 | 19.70335 | 117.01574 | 36998 ft | 514 kts | 136° |
| 2026-05-04 12:35 | 19.65497 | 117.07162 | 37000 ft | 514 kts | 136° |
| 2026-05-04 12:35 | 19.60686 | 117.12715 | 37005 ft | 514 kts | 136° |
| 2026-05-04 12:36 | 19.55844 | 117.18296 | 36990 ft | 514 kts | 136° |
| 2026-05-04 12:36 | 19.51002 | 117.23875 | 36994 ft | 513 kts | 136° |
| 2026-05-04 12:37 | 19.46171 | 117.29433 | 36998 ft | 513 kts | 136° |
| 2026-05-04 12:37 | 19.41340 | 117.34987 | 36991 ft | 512 kts | 136° |
| 2026-05-04 12:38 | 19.36504 | 117.40540 | 36992 ft | 512 kts | 136° |
| 2026-05-04 12:38 | 19.32485 | 117.45153 | 36991 ft | 512 kts | 136° |
| 2026-05-04 12:39 | 19.27656 | 117.50690 | 36990 ft | 512 kts | 136° |
| 2026-05-04 12:39 | 19.22823 | 117.56226 | 36988 ft | 511 kts | 136° |
| 2026-05-04 12:40 | 19.17992 | 117.61755 | 36985 ft | 511 kts | 136° |
| 2026-05-04 12:40 | 19.13167 | 117.67272 | 36987 ft | 511 kts | 136° |
| 2026-05-04 12:41 | 19.08376 | 117.72746 | 36980 ft | 511 kts | 136° |
| 2026-05-04 12:41 | 19.03539 | 117.78269 | 36984 ft | 510 kts | 136° |
| 2026-05-04 12:42 | 18.98712 | 117.83766 | 36977 ft | 510 kts | 136° |
| 2026-05-04 12:42 | 18.93877 | 117.89264 | 36979 ft | 510 kts | 136° |
| 2026-05-04 12:43 | 18.89036 | 117.94764 | 36978 ft | 511 kts | 136° |
| 2026-05-04 12:43 | 18.84224 | 118.00230 | 36963 ft | 511 kts | 136° |
| 2026-05-04 12:44 | 18.79392 | 118.05713 | 36977 ft | 510 kts | 136° |
| 2026-05-04 12:44 | 18.74558 | 118.11194 | 36976 ft | 509 kts | 136° |
| 2026-05-04 12:45 | 18.69725 | 118.16668 | 36966 ft | 509 kts | 136° |
| 2026-05-04 12:45 | 18.64901 | 118.22128 | 36963 ft | 508 kts | 136° |
| 2026-05-04 12:46 | 18.60080 | 118.27579 | 36965 ft | 508 kts | 136° |
| 2026-05-04 12:46 | 18.55265 | 118.33018 | 36962 ft | 507 kts | 136° |
| 2026-05-04 12:47 | 18.50453 | 118.38450 | 36964 ft | 507 kts | 136° |
| 2026-05-04 12:47 | 18.45673 | 118.43840 | 36957 ft | 507 kts | 136° |
| 2026-05-04 12:48 | 18.40861 | 118.49261 | 36966 ft | 507 kts | 136° |
| 2026-05-04 12:48 | 18.36043 | 118.54685 | 36958 ft | 507 kts | 136° |
| 2026-05-04 12:49 | 18.31225 | 118.60104 | 36961 ft | 507 kts | 136° |
| 2026-05-04 12:49 | 18.26400 | 118.65527 | 36958 ft | 507 kts | 136° |
| 2026-05-04 12:50 | 18.21759 | 118.70742 | 36929 ft | 488 kts | 136° |
| 2026-05-04 12:50 | 18.17209 | 118.75853 | 36935 ft | 470 kts | 136° |
| 2026-05-04 12:51 | 18.12808 | 118.80786 | 36935 ft | 455 kts | 137° |
| 2026-05-04 12:51 | 18.08562 | 118.85539 | 36938 ft | 442 kts | 137° |
| 2026-05-04 12:52 | 18.04400 | 118.90197 | 36934 ft | 431 kts | 137° |
| 2026-05-04 12:52 | 18.00344 | 118.94733 | 36931 ft | 421 kts | 137° |
| 2026-05-04 12:53 | 17.96385 | 118.99158 | 36930 ft | 411 kts | 137° |
| 2026-05-04 12:53 | 17.92514 | 119.03481 | 36906 ft | 402 kts | 137° |
| 2026-05-04 12:53 | 17.90600 | 119.05617 | 36788 ft | 402 kts | 137° |
| 2026-05-04 12:54 | 17.88685 | 119.07752 | 36602 ft | 402 kts | 137° |
| 2026-05-04 12:54 | 17.84874 | 119.12001 | 36436 ft | 398 kts | 137° |
| 2026-05-04 12:54 | 17.82967 | 119.14127 | 36295 ft | 398 kts | 137° |
| 2026-05-04 12:55 | 17.81070 | 119.16240 | 36183 ft | 398 kts | 137° |
| 2026-05-04 12:55 | 17.77287 | 119.20456 | 36011 ft | 396 kts | 137° |
| 2026-05-04 12:56 | 17.73543 | 119.24623 | 35794 ft | 395 kts | 137° |
| 2026-05-04 12:56 | 17.71633 | 119.26749 | 35678 ft | 395 kts | 137° |
| 2026-05-04 12:56 | 17.69778 | 119.28812 | 35620 ft | 393 kts | 137° |
| 2026-05-04 12:57 | 17.66035 | 119.32974 | 35480 ft | 392 kts | 137° |
| 2026-05-04 12:57 | 17.64162 | 119.35055 | 35366 ft | 393 kts | 137° |
| 2026-05-04 12:57 | 17.62289 | 119.37136 | 35289 ft | 392 kts | 137° |
| 2026-05-04 12:58 | 17.58559 | 119.41279 | 35180 ft | 390 kts | 137° |
| 2026-05-04 12:58 | 17.54840 | 119.45405 | 35051 ft | 389 kts | 137° |
| 2026-05-04 12:59 | 17.51121 | 119.49530 | 34924 ft | 389 kts | 137° |
| 2026-05-04 12:59 | 17.47409 | 119.53644 | 34809 ft | 388 kts | 137° |
| 2026-05-04 13:00 | 17.43729 | 119.57720 | 34712 ft | 387 kts | 137° |
| 2026-05-04 13:00 | 17.40030 | 119.61814 | 34596 ft | 387 kts | 137° |
| 2026-05-04 13:01 | 17.36337 | 119.65900 | 34498 ft | 386 kts | 136° |
| 2026-05-04 13:01 | 17.32632 | 119.69996 | 34365 ft | 387 kts | 136° |
| 2026-05-04 13:02 | 17.28961 | 119.74051 | 34300 ft | 386 kts | 136° |
| 2026-05-04 13:02 | 17.25269 | 119.78128 | 34217 ft | 386 kts | 136° |
| 2026-05-04 13:03 | 17.21586 | 119.82193 | 34158 ft | 385 kts | 136° |
| 2026-05-04 13:03 | 17.17899 | 119.86259 | 34068 ft | 385 kts | 136° |
| 2026-05-04 13:04 | 17.14221 | 119.90313 | 34008 ft | 384 kts | 136° |
| 2026-05-04 13:04 | 17.10538 | 119.94369 | 33950 ft | 384 kts | 136° |
| 2026-05-04 13:05 | 17.06885 | 119.98390 | 33882 ft | 384 kts | 136° |
| 2026-05-04 13:05 | 17.03212 | 120.02431 | 33833 ft | 383 kts | 136° |
| 2026-05-04 13:06 | 16.99543 | 120.06465 | 33774 ft | 384 kts | 136° |
| 2026-05-04 13:06 | 16.95816 | 120.10558 | 34101 ft | 391 kts | 136° |
| 2026-05-04 13:06 | 16.93934 | 120.12624 | 34321 ft | 394 kts | 136° |
| 2026-05-04 13:07 | 16.92036 | 120.14709 | 34562 ft | 397 kts | 136° |
| 2026-05-04 13:07 | 16.90130 | 120.16802 | 34787 ft | 399 kts | 136° |
| 2026-05-04 13:07 | 16.88209 | 120.18909 | 35030 ft | 401 kts | 136° |
| 2026-05-04 13:07 | 16.86278 | 120.21029 | 35263 ft | 404 kts | 136° |
| 2026-05-04 13:08 | 16.84361 | 120.23130 | 35500 ft | 405 kts | 136° |
| 2026-05-04 13:08 | 16.82412 | 120.25268 | 35746 ft | 407 kts | 136° |
| 2026-05-04 13:08 | 16.80457 | 120.27411 | 35984 ft | 409 kts | 136° |
| 2026-05-04 13:08 | 16.78493 | 120.29565 | 36242 ft | 410 kts | 136° |
| 2026-05-04 13:09 | 16.76518 | 120.31727 | 36500 ft | 411 kts | 136° |
| 2026-05-04 13:09 | 16.74517 | 120.33858 | 36704 ft | 412 kts | 141° |
| 2026-05-04 13:09 | 16.72300 | 120.35758 | 36817 ft | 413 kts | 147° |
| 2026-05-04 13:10 | 16.67320 | 120.38847 | 36962 ft | 421 kts | 156° |
| 2026-05-04 13:10 | 16.61995 | 120.41665 | 36982 ft | 437 kts | 156° |
| 2026-05-04 13:11 | 16.56472 | 120.44584 | 36995 ft | 453 kts | 155° |
| 2026-05-04 13:11 | 16.50766 | 120.47632 | 36985 ft | 469 kts | 155° |
| 2026-05-04 13:12 | 16.44917 | 120.50770 | 36978 ft | 484 kts | 155° |
| 2026-05-04 13:12 | 16.38840 | 120.54032 | 36996 ft | 497 kts | 155° |
| 2026-05-04 13:13 | 16.32658 | 120.57349 | 36983 ft | 503 kts | 155° |
| 2026-05-04 13:13 | 16.26399 | 120.60703 | 36983 ft | 508 kts | 155° |
| 2026-05-04 13:14 | 16.20109 | 120.64074 | 36979 ft | 505 kts | 155° |
| 2026-05-04 13:14 | 16.13892 | 120.67401 | 36958 ft | 500 kts | 155° |
| 2026-05-04 13:15 | 16.07752 | 120.70682 | 36973 ft | 499 kts | 155° |
| 2026-05-04 13:15 | 16.01581 | 120.73978 | 36982 ft | 499 kts | 155° |
| 2026-05-04 13:16 | 15.95397 | 120.77278 | 36965 ft | 500 kts | 155° |
| 2026-05-04 13:16 | 15.89207 | 120.80580 | 36968 ft | 501 kts | 155° |
| 2026-05-04 13:17 | 15.83012 | 120.83882 | 36452 ft | 498 kts | 155° |
| 2026-05-04 13:17 | 15.79931 | 120.85524 | 35797 ft | 497 kts | 155° |
| 2026-05-04 13:17 | 15.76862 | 120.87158 | 35103 ft | 497 kts | 155° |
| 2026-05-04 13:17 | 15.73781 | 120.88798 | 34397 ft | 498 kts | 155° |
| 2026-05-04 13:18 | 15.70695 | 120.90441 | 33677 ft | 498 kts | 154° |
| 2026-05-04 13:18 | 15.67617 | 120.92078 | 33070 ft | 495 kts | 154° |
| 2026-05-04 13:18 | 15.64617 | 120.93675 | 32614 ft | 488 kts | 154° |
| 2026-05-04 13:18 | 15.61611 | 120.95274 | 32195 ft | 481 kts | 154° |
| 2026-05-04 13:19 | 15.58653 | 120.96847 | 31770 ft | 476 kts | 154° |
| 2026-05-04 13:19 | 15.56670 | 120.97901 | 31457 ft | 472 kts | 154° |
| 2026-05-04 13:19 | 15.52820 | 120.99946 | 30844 ft | 466 kts | 154° |
| 2026-05-04 13:19 | 15.49947 | 121.01471 | 30398 ft | 462 kts | 154° |
| 2026-05-04 13:20 | 15.47033 | 121.02835 | 29919 ft | 456 kts | 163° |
| 2026-05-04 13:20 | 15.43980 | 121.03624 | 29395 ft | 450 kts | 169° |
| 2026-05-04 13:20 | 15.40912 | 121.04227 | 28877 ft | 446 kts | 170° |
| 2026-05-04 13:20 | 15.37870 | 121.04799 | 28361 ft | 443 kts | 170° |
| 2026-05-04 13:21 | 15.34857 | 121.05387 | 27855 ft | 439 kts | 169° |
| 2026-05-04 13:21 | 15.31870 | 121.06001 | 27354 ft | 436 kts | 169° |
| 2026-05-04 13:21 | 15.28912 | 121.06633 | 26892 ft | 433 kts | 168° |
| 2026-05-04 13:21 | 15.26002 | 121.07268 | 26411 ft | 429 kts | 168° |
| 2026-05-04 13:22 | 15.23083 | 121.07911 | 25966 ft | 426 kts | 168° |
| 2026-05-04 13:22 | 15.20186 | 121.08549 | 25291 ft | 429 kts | 168° |
| 2026-05-04 13:22 | 15.17234 | 121.09199 | 24351 ft | 438 kts | 168° |
| 2026-05-04 13:22 | 15.14215 | 121.09863 | 23532 ft | 444 kts | 168° |
| 2026-05-04 13:23 | 15.11185 | 121.10527 | 22721 ft | 445 kts | 168° |
| 2026-05-04 13:23 | 15.08170 | 121.11002 | 21872 ft | 446 kts | 176° |
| 2026-05-04 13:23 | 15.05067 | 121.10943 | 21150 ft | 445 kts | 186° |
| 2026-05-04 13:23 | 15.02039 | 121.10331 | 20581 ft | 442 kts | 195° |
| 2026-05-04 13:24 | 14.99172 | 121.09222 | 20032 ft | 438 kts | 203° |
| 2026-05-04 13:24 | 14.96434 | 121.07869 | 19482 ft | 434 kts | 206° |
| 2026-05-04 13:24 | 14.93750 | 121.06447 | 18903 ft | 432 kts | 207° |
| 2026-05-04 13:25 | 14.88459 | 121.03579 | 17750 ft | 426 kts | 207° |
| 2026-05-04 13:25 | 14.85846 | 121.02150 | 17175 ft | 423 kts | 207° |
| 2026-05-04 13:25 | 14.83255 | 121.00724 | 16632 ft | 420 kts | 207° |
| 2026-05-04 13:25 | 14.80691 | 120.99303 | 16075 ft | 417 kts | 207° |
| 2026-05-04 13:26 | 14.78149 | 120.97887 | 15536 ft | 414 kts | 207° |
| 2026-05-04 13:26 | 14.75630 | 120.96474 | 15016 ft | 411 kts | 207° |
| 2026-05-04 13:26 | 14.73124 | 120.95065 | 14506 ft | 408 kts | 207° |
| 2026-05-04 13:26 | 14.70643 | 120.93664 | 14001 ft | 406 kts | 207° |
| 2026-05-04 13:27 | 14.68177 | 120.92268 | 13482 ft | 403 kts | 207° |
| 2026-05-04 13:27 | 14.65722 | 120.90872 | 12916 ft | 402 kts | 207° |
| 2026-05-04 13:27 | 14.63286 | 120.89485 | 12360 ft | 400 kts | 207° |
| 2026-05-04 13:27 | 14.60851 | 120.88095 | 11817 ft | 398 kts | 207° |
| 2026-05-04 13:28 | 14.58433 | 120.86710 | 11297 ft | 397 kts | 207° |
| 2026-05-04 13:28 | 14.56026 | 120.85325 | 10775 ft | 396 kts | 207° |
| 2026-05-04 13:28 | 14.53624 | 120.83936 | 10263 ft | 393 kts | 208° |
| 2026-05-04 13:28 | 14.51416 | 120.82354 | 9961 ft | 388 kts | 220° |
| 2026-05-04 13:29 | 14.49669 | 120.80387 | 9783 ft | 356 kts | 232° |
| 2026-05-04 13:29 | 14.48326 | 120.78356 | 9473 ft | 331 kts | 236° |
| 2026-05-04 13:29 | 14.47128 | 120.76403 | 9010 ft | 315 kts | 237° |
| 2026-05-04 13:29 | 14.45981 | 120.74508 | 8393 ft | 308 kts | 237° |
| 2026-05-04 13:30 | 14.44857 | 120.72656 | 7748 ft | 302 kts | 237° |
| 2026-05-04 13:30 | 14.44120 | 120.71446 | 7317 ft | 299 kts | 237° |
| 2026-05-04 13:30 | 14.43023 | 120.69650 | 6664 ft | 295 kts | 237° |
| 2026-05-04 13:30 | 14.41934 | 120.67872 | 6009 ft | 291 kts | 237° |
| 2026-05-04 13:31 | 14.40858 | 120.66122 | 5402 ft | 289 kts | 237° |
| 2026-05-04 13:31 | 14.39782 | 120.64370 | 5179 ft | 289 kts | 237° |
| 2026-05-04 13:31 | 14.38697 | 120.62601 | 5028 ft | 292 kts | 237° |
| 2026-05-04 13:31 | 14.37599 | 120.60882 | 4977 ft | 281 kts | 229° |
| 2026-05-04 13:32 | 14.36022 | 120.59766 | 4985 ft | 279 kts | 194° |
| 2026-05-04 13:32 | 14.34126 | 120.59730 | 4986 ft | 278 kts | 161° |
| 2026-05-04 13:32 | 14.32412 | 120.60638 | 4992 ft | 275 kts | 139° |
| 2026-05-04 13:32 | 14.31135 | 120.62069 | 4983 ft | 271 kts | 120° |
| 2026-05-04 13:33 | 14.30458 | 120.63855 | 4978 ft | 267 kts | 97° |
| 2026-05-04 13:33 | 14.30549 | 120.65756 | 4977 ft | 265 kts | 75° |
| 2026-05-04 13:33 | 14.31330 | 120.67456 | 4972 ft | 262 kts | 51° |
| 2026-05-04 13:33 | 14.32567 | 120.68827 | 4994 ft | 264 kts | 46° |
| 2026-05-04 13:34 | 14.33739 | 120.70280 | 4997 ft | 268 kts | 56° |
| 2026-05-04 13:34 | 14.34703 | 120.71908 | 4983 ft | 268 kts | 61° |
| 2026-05-04 13:34 | 14.35601 | 120.73594 | 4981 ft | 268 kts | 62° |
| 2026-05-04 13:34 | 14.36496 | 120.75280 | 4980 ft | 268 kts | 62° |
| 2026-05-04 13:35 | 14.37398 | 120.76965 | 4835 ft | 270 kts | 62° |
| 2026-05-04 13:35 | 14.39242 | 120.80390 | 4136 ft | 273 kts | 62° |
| 2026-05-04 13:35 | 14.40162 | 120.82098 | 3791 ft | 273 kts | 62° |
| 2026-05-04 13:36 | 14.41082 | 120.83809 | 3455 ft | 272 kts | 62° |
| 2026-05-04 13:36 | 14.42002 | 120.85520 | 3117 ft | 272 kts | 62° |
| 2026-05-04 13:36 | 14.42921 | 120.87228 | 2763 ft | 272 kts | 63° |
| 2026-05-04 13:36 | 14.43833 | 120.88923 | 2410 ft | 272 kts | 62° |
| 2026-05-04 13:37 | 14.44725 | 120.90581 | 2050 ft | 255 kts | 62° |
| 2026-05-04 13:37 | 14.45548 | 120.92108 | 1714 ft | 230 kts | 63° |
| 2026-05-04 13:37 | 14.46267 | 120.93446 | 1441 ft | 201 kts | 63° |
| 2026-05-04 13:37 | 14.46908 | 120.94639 | 1276 ft | 187 kts | 64° |
| 2026-05-04 13:38 | 14.47520 | 120.95778 | 1031 ft | 178 kts | 64° |
| 2026-05-04 13:38 | 14.48087 | 120.96833 | 818 ft | 158 kts | 62° |
| 2026-05-04 13:38 | 14.48564 | 120.97777 | 640 ft | 140 kts | 66° |
| 2026-05-04 13:38 | 14.49054 | 120.98714 | 463 ft | 152 kts | 64° |
| 2026-05-04 13:39 | 14.49592 | 120.99675 | 240 ft | 153 kts | 62° |
| 2026-05-04 13:39 | 14.50109 | 121.00588 | 66 ft | 144 kts | 63° |
| 2026-05-04 13:39 | 14.50542 | 121.01370 | 70 ft | 102 kts | 60° |
| 2026-05-04 13:39 | 14.50757 | 121.01755 | 66 ft | 41 kts | 60° |
| 2026-05-04 13:40 | 14.50899 | 121.02010 | 65 ft | 39 kts | 60° |
| 2026-05-04 13:40 | 14.51039 | 121.02233 | 67 ft | 35 kts | 39° |
| 2026-05-04 13:40 | 14.51161 | 121.02302 | 72 ft | 6 kts | 1° |
| 2026-05-04 13:40 | 14.51189 | 121.02269 | 66 ft | 7 kts | 274° |
| 2026-05-04 13:41 | 14.51169 | 121.02220 | 66 ft | 8 kts | 241° |
| 2026-05-04 13:41 | 14.51142 | 121.02169 | 64 ft | 7 kts | 241° |
| 2026-05-04 13:41 | 14.51136 | 121.02157 | 64 ft | 0 kts | 240° |
| 2026-05-04 13:44 | 14.51106 | 121.02104 | 65 ft | 17 kts | 239° |
| 2026-05-04 13:44 | 14.51090 | 121.02076 | 65 ft | 0 kts | 240° |
| 2026-05-04 13:44 | 14.51082 | 121.02062 | 63 ft | 10 kts | 240° |
| 2026-05-04 13:44 | 14.51081 | 121.01973 | 63 ft | 6 kts | 325° |
| 2026-05-04 13:45 | 14.51144 | 121.01918 | 64 ft | 20 kts | 309° |
| 2026-05-04 13:45 | 14.51248 | 121.01803 | 64 ft | 22 kts | 317° |
| 2026-05-04 13:45 | 14.51358 | 121.01690 | 63 ft | 22 kts | 316° |
| 2026-05-04 13:45 | 14.51469 | 121.01576 | 64 ft | 22 kts | 315° |
| 2026-05-04 13:46 | 14.51579 | 121.01463 | 64 ft | 22 kts | 315° |
| 2026-05-04 13:46 | 14.51689 | 121.01349 | 63 ft | 23 kts | 315° |
| 2026-05-04 13:46 | 14.51800 | 121.01234 | 68 ft | 17 kts | 315° |
| 2026-05-04 13:46 | 14.51847 | 121.01225 | 66 ft | 7 kts | 32° |
| 2026-05-04 13:47 | 14.51886 | 121.01260 | 63 ft | 5 kts | 44° |
| 2026-05-04 13:47 | 14.51901 | 121.01275 | 65 ft | 2 kts | 45° |
| 2026-05-04 13:47 | 14.51898 | 121.01272 | 65 ft | 4 kts | 45° |
| 2026-05-04 13:47 | 14.51896 | 121.01270 | 65 ft | 0 kts | 45° |
| 2026-05-04 13:48 | 14.51893 | 121.01267 | 65 ft | 0 kts | 45° |